Latest Coastal Weather Observations for Cooktown

IDQ60701

Issued at 7:45 pm EST Friday 22 August 2014 (issued every 10 minutes, with the page automatically refreshed every 10 minutes)

About coastal observations | Map of coastal stations | Coastal observations for QLD | Marine services | Other Formats
Station Details ID: 031209 Name: COOKTOWN AIRPORT Lat: -15.45 Lon: 145.19 Height: 4.8 m
Data from the previous 72 hours. | See also: Recent months at Cooktown
Date/Time
EST
Temp

°C
Wind Pressure Rain
since 9am
mm
Weather Cloud Vis
km
Sea
Height
m
Swell
Dir
 
Speed
knots
Gust
knots
hPa Trend Height
m
Period
s
Dir
22/07:30pm 22.4 ESE 8 12 1016.1 - 0.0 - - 10 - - - -
22/07:00pm 22.7 ESE 9 13 1015.9 - 0.0 - Partly cloudy 10 - - - -
22/06:30pm 22.6 ESE 9 14 1015.6 - 0.0 - Partly cloudy 10 - - - -
22/06:00pm 23.1 ESE 12 19 1015.3 - 0.0 - - 10 - - - -
22/05:30pm 23.7 ESE 14 21 1015.1 - 0.0 - Partly cloudy 10 - - - -
22/05:00pm 24.4 ESE 14 21 1015.0 - 0.0 - Partly cloudy 10 - - - -
22/04:30pm 24.7 ESE 14 22 1014.6 - 0.0 - Partly cloudy 10 - - - -
22/04:00pm 24.4 ESE 14 21 1014.6 - 0.0 - Partly cloudy 10 - - - -
22/03:30pm 25.4 ESE 15 21 1014.6 - 0.0 - Partly cloudy 10 - - - -
22/03:00pm 25.2 ESE 14 21 1014.6 R 0.0 Fine Partly cloudy 35 - - - -
22/02:30pm 26.0 ESE 12 21 1014.7 - 0.0 - Partly cloudy 10 - - - -
22/02:00pm 26.5 ESE 14 21 1014.9 - 0.0 - Partly cloudy 10 - - - -
22/01:30pm 26.0 ESE 17 25 1015.2 - 0.0 - Partly cloudy 10 - - - -
22/01:00pm 26.3 SE 14 21 1015.5 - 0.0 - Partly cloudy 10 - - - -
22/12:30pm 26.5 ESE 16 23 1015.9 - 0.0 - Partly cloudy 10 - - - -
22/12:00pm 26.5 ESE 13 19 1016.4 - 0.0 - - 10 - - - -
22/11:30am 26.7 ESE 12 19 1016.8 - 0.0 - Partly cloudy 10 - - - -
22/11:00am 26.6 ESE 11 19 1017.3 - 0.0 - Partly cloudy 10 - - - -
22/10:30am 25.7 ESE 12 17 1017.7 - 0.0 - Partly cloudy 10 - - - -
22/10:00am 24.9 ESE 12 19 1017.9 - 0.0 - Partly cloudy 10 - - - -
22/09:30am 23.8 ESE 12 17 1017.8 - 0.0 - Partly cloudy 10 - - - -
22/09:00am 23.3 ESE 9 15 1017.7 R 0.0 Fine Partly cloudy 40 - - - -
22/08:30am 23.0 SE 8 14 1017.5 - 0.0 - Partly cloudy 10 - - - -
22/08:00am 22.0 S 4 7 1017.3 - 0.0 - Partly cloudy 10 - - - -
22/07:30am 21.2 SSE 3 5 1017.0 - 0.0 - Partly cloudy 10 - - - -
22/07:00am 20.2 ESE 2 4 1016.7 - 0.0 - Partly cloudy 10 - - - -
22/06:30am 20.3 ESE 4 7 1016.4 - 0.0 - - 10 - - - -
22/06:00am 20.6 SE 5 8 1016.1 - 0.0 - - 10 - - - -
22/05:30am 21.0 SE 6 10 1015.7 - 0.0 - - 10 - - - -
22/05:00am 21.1 SE 5 7 1015.5 - 0.0 - Partly cloudy 10 - - - -
22/04:30am 21.3 ESE 6 8 1015.3 - 0.0 - Partly cloudy 10 - - - -
22/04:00am 21.6 SE 7 11 1015.2 - 0.0 - Partly cloudy 10 - - - -
22/03:30am 21.7 ESE 8 13 1015.3 - 0.0 - Partly cloudy 10 - - - -
22/03:00am 21.6 SE 5 9 1015.5 - 0.0 - Cloudy 10 - - - -
22/02:30am 21.6 ESE 7 10 1015.6 - 0.0 - - 10 - - - -
22/02:00am 21.8 ESE 8 13 1015.7 - 0.0 - Partly cloudy 10 - - - -
22/01:30am 21.9 ESE 6 11 1015.9 - 0.0 - Partly cloudy 10 - - - -
22/01:00am 21.9 ESE 8 11 1016.1 - 0.0 - Partly cloudy 10 - - - -
22/12:30am 21.9 ESE 7 11 1016.4 - 0.0 - Partly cloudy 10 - - - -
22/12:00am 22.1 ESE 10 13 1016.7 - 0.0 - Cloudy 10 - - - -
 
Date/Time
EST
Temp

°C
Wind Pressure Rain
since 9am
mm
Weather Cloud Vis
km
Sea
Height
m
Swell
Dir
 
Speed
knots
Gust
knots
hPa Trend Height
m
Period
s
Dir
21/11:30pm 22.0 ESE 9 14 1016.8 - 0.0 - Partly cloudy 10 - - - -
21/11:00pm 22.0 ESE 8 14 1016.8 - 0.0 - - 10 - - - -
21/10:30pm 22.1 ESE 10 13 1016.8 - 0.0 - Partly cloudy 10 - - - -
21/10:00pm 22.0 ESE 9 13 1016.8 - 0.0 - Partly cloudy 10 - - - -
21/09:30pm 22.0 ESE 10 16 1016.6 - 0.0 - Partly cloudy 10 - - - -
21/09:00pm 21.9 ESE 9 13 1016.5 - 0.0 - - 10 - - - -
21/08:30pm 22.1 ESE 10 17 1016.4 - 0.0 - - 10 - - - -
21/08:00pm 22.0 ESE 8 13 1016.2 - 0.0 - - 10 - - - -
21/07:30pm 22.1 ESE 10 15 1015.9 - 0.0 - Partly cloudy 10 - - - -
21/07:00pm 22.0 ESE 9 13 1015.5 - 0.0 - - 10 - - - -
21/06:30pm 22.2 ESE 10 14 1015.1 - 0.0 - - 10 - - - -
21/06:00pm 22.4 ESE 11 15 1014.9 - 0.0 - - 10 - - - -
21/05:30pm 23.1 ESE 12 19 1014.6 - 0.0 - - 10 - - - -
21/05:00pm 23.6 ESE 14 21 1014.4 - 0.0 - - 10 - - - -
21/04:30pm 24.1 ESE 15 20 1014.3 - 0.0 - - 10 - - - -
21/04:00pm 24.6 ESE 14 21 1014.0 - 0.0 - - 10 - - - -
21/03:30pm 24.9 ESE 13 21 1014.0 - 0.0 - - 10 - - - -
21/03:00pm 25.5 ESE 15 19 1013.9 R 0.0 Fine Mostly clear 40 - - - -
21/02:30pm 25.3 ESE 12 17 1014.1 - 0.0 - - 10 - - - -
21/02:00pm 25.2 SE 11 17 1014.4 - 0.0 - - 10 - - - -
21/01:30pm 26.0 ESE 13 19 1014.6 - 0.0 - - 10 - - - -
21/01:00pm 25.8 ESE 14 21 1015.1 - 0.0 - - 10 - - - -
21/12:30pm 25.7 ESE 12 18 1015.3 - 0.0 - - 10 - - - -
21/12:00pm 25.6 ESE 11 16 1015.8 - 0.0 - Cloudy 10 - - - -
21/11:30am 25.3 SE 10 16 1016.2 - 0.0 - Partly cloudy 10 - - - -
21/11:00am 25.6 SE 11 16 1016.6 - 0.0 - Partly cloudy 10 - - - -
21/10:30am 25.1 SE 10 16 1016.9 - 0.0 - Partly cloudy 10 - - - -
21/10:00am 25.3 ESE 10 17 1017.1 - 0.0 - Partly cloudy 10 - - - -
21/09:30am 24.3 ESE 9 14 1017.2 - 0.0 - Cloudy 10 - - - -
21/09:00am 23.9 ESE 12 16 1016.9 R 0.0 Fine Partly cloudy 40 - - - -
21/08:30am 23.8 ESE 8 13 1016.7 - 0.0 - - 10 - - - -
21/08:00am 23.3 SE 6 10 1016.5 - 0.0 - Cloudy 10 - - - -
21/07:30am 19.6 SE 1 4 1016.2 - 0.0 - Cloudy 10 - - - -
21/07:00am 18.0 CALM 0 4 1016.0 - 0.0 - Partly cloudy 10 - - - -
21/06:30am 21.0 SE 4 6 1015.7 - 0.0 - Partly cloudy 10 - - - -
21/06:00am 21.5 ESE 7 10 1015.4 - 0.0 - Cloudy 10 - - - -
21/05:30am 21.4 SE 5 8 1015.1 - 0.0 - Partly cloudy 10 - - - -
21/05:00am 21.1 SE 4 6 1014.9 - 0.0 - Partly cloudy 10 - - - -
21/04:30am 20.7 SE 4 7 1014.9 - 0.0 - Partly cloudy 10 - - - -
21/04:00am 20.9 SE 5 9 1015.0 - 0.0 - - 10 - - - -
21/03:30am 20.8 ESE 5 9 1015.1 - 0.0 - - 10 - - - -
21/03:00am 21.4 ESE 7 11 1015.2 - 0.0 - Cloudy 10 - - - -
21/02:30am 21.4 ESE 8 13 1015.4 - 0.0 - - 10 - - - -
21/02:00am 21.5 ESE 8 12 1015.6 - 0.0 - - 10 - - - -
21/01:30am 21.4 ESE 9 12 1015.8 - 0.0 - - 10 - - - -
21/01:00am 21.8 ESE 10 15 1016.1 - 0.0 - - 10 - - - -
21/12:30am 22.0 ESE 12 17 1016.6 - 0.0 - Partly cloudy 10 - - - -
21/12:00am 21.7 ESE 11 15 1016.7 - 0.0 - Cloudy 10 - - - -
 
Date/Time
EST
Temp

°C
Wind Pressure Rain
since 9am
mm
Weather Cloud Vis
km
Sea
Height
m
Swell
Dir
 
Speed
knots
Gust
knots
hPa Trend Height
m
Period
s
Dir
20/11:30pm 21.9 ESE 11 17 1017.0 - 0.0 - Partly cloudy 10 - - - -
20/11:00pm 21.9 ESE 9 13 1017.2 - 0.0 - Partly cloudy 10 - - - -
20/10:30pm 21.7 ESE 10 14 1017.3 - 0.0 - Partly cloudy 10 - - - -
20/10:00pm 22.0 ESE 12 18 1017.2 - 0.0 - Partly cloudy 10 - - - -
20/09:30pm 22.0 ESE 10 14 1017.4 - 0.0 - Partly cloudy 10 - - - -
20/09:00pm 21.7 ESE 8 17 1017.0 - 0.0 - - 10 - - - -
20/08:30pm 21.9 ESE 10 15 1016.8 - 0.0 - - 10 - - - -
20/08:00pm 21.6 ESE 8 14 1016.6 - 0.0 - Partly cloudy 10 - - - -
20/07:30pm 21.6 ESE 9 16 1016.3 - 0.0 - - 10 - - - -
20/07:00pm 21.5 ESE 9 13 1015.9 - 0.0 - - 10 - - - -
20/06:30pm 21.4 ESE 7 10 1015.9 - 0.0 - - 10 - - - -
20/06:00pm 22.0 SE 9 11 1015.7 - 0.0 - - 10 - - - -
20/05:30pm 22.5 ESE 9 14 1015.5 - 0.0 - - 10 - - - -
20/05:00pm 23.2 ESE 9 15 1015.0 - 0.0 - - 10 - - - -
20/04:30pm 24.0 E 13 18 1014.7 - 0.0 - - 10 - - - -
20/04:00pm 24.2 ESE 10 14 1014.4 - 0.0 - Partly cloudy 10 - - - -
20/03:30pm 24.4 ESE 10 15 1014.3 - 0.0 - - 10 - - - -
20/03:00pm 25.2 SE 9 17 1014.2 F 0.0 Fine Mostly clear 40 - - - -
20/02:30pm 25.5 E 12 17 1014.1 - 0.0 - - 10 - - - -
20/02:00pm 25.0 E 11 15 1014.5 - 0.0 - - 10 - - - -
20/01:30pm 25.3 E 11 15 1014.9 - 0.0 - Partly cloudy 10 - - - -
20/01:00pm 24.5 E 11 17 1015.4 - 0.0 - Partly cloudy 10 - - - -
20/12:30pm 25.5 ENE 11 17 1015.8 - 0.0 - Partly cloudy 10 - - - -
20/12:00pm 25.0 ESE 9 14 1016.3 - 0.0 - Cloudy 10 - - - -
20/11:30am 24.4 SE 7 13 1016.7 - 0.0 - Partly cloudy 10 - - - -
20/11:00am 24.6 SE 9 14 1017.1 - 0.0 - Partly cloudy 10 - - - -
20/10:30am 24.7 SE 8 13 1017.1 - 0.0 - Partly cloudy 10 - - - -
20/10:00am 24.6 ESE 10 17 1017.1 - 0.0 - Partly cloudy 10 - - - -
20/09:30am 24.4 ESE 10 14 1016.9 - 0.0 - Partly cloudy 10 - - - -
20/09:00am 23.9 ESE 9 13 1017.1 F 0.0 Fine Mostly clear 40 - - - -
20/08:30am 22.8 SE 7 9 1017.0 - 0.0 - - 10 - - - -
20/08:00am 19.7 WNW 2 4 1016.8 - 0.0 - - 10 - - - -
20/07:30am 17.0 WNW 3 4 1016.5 - 0.0 - - 10 - - - -
20/07:00am 14.7 CALM 0 0 1016.4 - 0.0 - - 10 - - - -
20/06:30am 14.4 WNW 4 5 1016.2 - 0.0 - - 10 - - - -
20/06:00am 14.1 WNW 3 4 1015.8 - 0.0 - - 10 - - - -
20/05:30am 14.6 CALM 0 3 1015.4 - 0.0 - - 10 - - - -
20/05:00am 14.8 WNW 3 4 1015.1 - 0.0 - - 10 - - - -
20/04:30am 14.6 WNW 2 4 1015.1 - 0.0 - Partly cloudy 10 - - - -
20/04:00am 14.6 WNW 1 3 1015.1 - 0.0 - Partly cloudy 10 - - - -
20/03:30am 15.1 WNW 4 5 1015.2 - 0.0 - - 10 - - - -
20/03:00am 14.8 WNW 3 4 1015.3 - 0.0 - - 10 - - - -
20/02:30am 14.9 WNW 2 4 1015.6 - 0.0 - - 10 - - - -
20/02:00am 15.5 NW 3 4 1015.6 - 0.0 - - 10 - - - -
20/01:30am 15.2 WNW 1 4 1015.9 - 0.0 - - 10 - - - -
20/01:00am 16.3 WNW 4 5 1016.3 - 0.0 - - 10 - - - -
20/12:30am 16.3 NW 5 5 1016.5 - 0.0 - - 10 - - - -
20/12:00am 17.0 S 1 3 1016.4 - 0.0 - - 10 - - - -
 
Date/Time
EST
Temp

°C
Wind Pressure Rain
since 9am
mm
Weather Cloud Vis
km
Sea
Height
m
Swell
Dir
 
Speed
knots
Gust
knots
hPa Trend Height
m
Period
s
Dir
19/11:30pm 19.9 SE 5 6 1016.4 - 0.0 - - 10 - - - -
19/11:00pm 20.6 SE 5 7 1016.5 - 0.0 - - 10 - - - -
19/10:30pm 20.7 SE 4 6 1016.8 - 0.0 - - 10 - - - -
19/10:00pm 21.0 SE 6 9 1016.9 - 0.0 - - 10 - - - -
19/09:30pm 21.0 ESE 7 9 1017.0 - 0.0 - - 10 - - - -
19/09:00pm 21.0 SE 5 7 1017.1 - 0.0 - - 10 - - - -
19/08:30pm 20.9 SE 5 8 1016.8 - 0.0 - - 10 - - - -
19/08:00pm 21.1 ESE 6 9 1016.4 - 0.0 - - 10 - - - -

Other Formats:

Comma delimited format used in spreadsheet applications
http://www.bom.gov.au/fwo/IDQ60701/IDQ60701.95283.axf

JavaScript Object Notation format (JSON) in row-major order
http://www.bom.gov.au/fwo/IDQ60701/IDQ60701.95283.json